This is the latest recevied weather packets stored in our database for station/object K8ZAS. If no packets are shown the sender has not sent any weather packets the latest 10 day(s).
| Time | Temp. | Humidity | Pressure | Rain* | Wind** | Luminosity | Snow |
|---|---|---|---|---|---|---|---|
| 1777746318 | 20.56° C | 16% | 1017.3 hPa | 0 mm | - | 984 W/m² | - |
| 1777743318 | 18.89° C | 18% | 1018 hPa | 0 mm | - | 917 W/m² | - |
| 1777742719 | 18.33° C | 20% | 1018.2 hPa | 0 mm | - | 899 W/m² | - |
| 1777742119 | 17.78° C | 23% | 1018.3 hPa | 0 mm | - | 880 W/m² | - |
| 1777740919 | 17.22° C | 25% | 1018.6 hPa | 0 mm | - | 839 W/m² | - |
| 1777736718 | 12.78° C | 33% | 1019.3 hPa | 0 mm | - | 649 W/m² | - |
| 1777736138 | 12.22° C | 35% | 1019.4 hPa | 0 mm | - | 618 W/m² | - |
| 1777734338 | 9.44° C | 40% | 1019.8 hPa | 0 mm | - | 517 W/m² | - |
| 1777729532 | 2.22° C | 69% | 1020.9 hPa | 0 mm | - | 92 W/m² | - |
| 1777728917 | 1.11° C | 73% | 1020.8 hPa | 0 mm | - | 81 W/m² | - |
| 1777725917 | -0.56° C | 80% | 1020 hPa | 0 mm | - | 33 W/m² | - |
| 1777719320 | -0.56° C | 75% | 1020.3 hPa | 0 mm | - | 0 W/m² | - |
| 1777714521 | 0.56° C | 73% | 1020.4 hPa | 0 mm | - | 0 W/m² | - |
| 1777713921 | 0.56° C | 75% | 1020.2 hPa | 0 mm | - | 0 W/m² | - |
| 1777713321 | 1.11° C | 73% | 1020.3 hPa | 0 mm | - | 0 W/m² | - |
| 1777707917 | 1.67° C | 70% | 1020.5 hPa | 0 mm | - | 0 W/m² | - |
| 1777705519 | 3.33° C | 64% | 1020.6 hPa | 0 mm | - | 0 W/m² | - |
| 1777702537 | 3.89° C | 61% | 1020.6 hPa | 0 mm | - | 0 W/m² | - |
| 1777701916 | 4.44° C | 59% | 1020.5 hPa | 0 mm | - | 0 W/m² | - |
| 1777698317 | 6.11° C | 54% | 1020.3 hPa | 0 mm | - | 0 W/m² | - |
| 1777697718 | 7.22° C | 45% | 1019.9 hPa | 0 mm | - | 0 W/m² | - |
| 1777697118 | 7.22° C | 45% | 1019.9 hPa | 0 mm | - | 0 W/m² | - |
| 1777691116 | 12.22° C | 26% | 1018.6 hPa | 0 mm | - | 0 W/m² | - |
| 1777689920 | 12.78° C | 25% | 1018.2 hPa | 0 mm | - | 0 W/m² | - |
| 1777685718 | 16.67° C | 18% | 1017.6 hPa | 0 mm | - | 38 W/m² | - |
* Rain latest hour (hover to see other rain measurements)
** Current wind speed in m/s (hover to see current wind gust speed)